sensor_id;sensor_type;location;lat;lon;timestamp;temperature;humidity
43673;DHT22;41723;49.326;8.430;2022-10-16T00:00:16;16.90;99.90
43673;DHT22;41723;49.326;8.430;2022-10-16T00:02:41;16.90;99.90
43673;DHT22;41723;49.326;8.430;2022-10-16T00:05:07;16.90;99.90
43673;DHT22;41723;49.326;8.430;2022-10-16T00:07:33;16.90;99.90
43673;DHT22;41723;49.326;8.430;2022-10-16T00:09:58;16.90;99.90
43673;DHT22;41723;49.326;8.430;2022-10-16T00:12:24;16.90;99.90
43673;DHT22;41723;49.326;8.430;2022-10-16T00:14:49;16.90;99.90
43673;DHT22;41723;49.326;8.430;2022-10-16T00:17:15;16.90;99.90
43673;DHT22;41723;49.326;8.430;2022-10-16T00:19:40;16.80;99.90
43673;DHT22;41723;49.326;8.430;2022-10-16T00:22:06;16.80;99.90
43673;DHT22;41723;49.326;8.430;2022-10-16T00:24:32;16.90;99.90
43673;DHT22;41723;49.326;8.430;2022-10-16T00:26:57;16.80;99.90
43673;DHT22;41723;49.326;8.430;2022-10-16T00:29:23;16.90;99.90
43673;DHT22;41723;49.326;8.430;2022-10-16T00:31:48;16.80;99.90
43673;DHT22;41723;49.326;8.430;2022-10-16T00:34:14;16.80;99.90
43673;DHT22;41723;49.326;8.430;2022-10-16T00:36:40;16.80;99.90
43673;DHT22;41723;49.326;8.430;2022-10-16T00:39:05;16.80;99.90
43673;DHT22;41723;49.326;8.430;2022-10-16T00:41:31;16.80;99.90
43673;DHT22;41723;49.326;8.430;2022-10-16T00:43:58;16.80;99.90
43673;DHT22;41723;49.326;8.430;2022-10-16T00:49:00;16.80;99.90
43673;DHT22;41723;49.326;8.430;2022-10-16T00:51:30;16.80;99.90
43673;DHT22;41723;49.326;8.430;2022-10-16T00:53:57;16.80;99.90
43673;DHT22;41723;49.326;8.430;2022-10-16T00:56:23;16.80;99.90
43673;DHT22;41723;49.326;8.430;2022-10-16T00:58:49;16.90;99.90
43673;DHT22;41723;49.326;8.430;2022-10-16T01:01:15;16.90;99.90
43673;DHT22;41723;49.326;8.430;2022-10-16T01:03:41;16.80;99.90
43673;DHT22;41723;49.326;8.430;2022-10-16T01:11:17;16.90;99.90
43673;DHT22;41723;49.326;8.430;2022-10-16T01:13:46;16.90;99.90
43673;DHT22;41723;49.326;8.430;2022-10-16T01:16:17;16.90;99.90
43673;DHT22;41723;49.326;8.430;2022-10-16T01:18:50;16.90;99.90
43673;DHT22;41723;49.326;8.430;2022-10-16T01:21:27;16.90;99.90
43673;DHT22;41723;49.326;8.430;2022-10-16T01:27:09;16.90;99.90
43673;DHT22;41723;49.326;8.430;2022-10-16T01:31:44;16.90;99.90
43673;DHT22;41723;49.326;8.430;2022-10-16T01:34:15;16.90;99.90
43673;DHT22;41723;49.326;8.430;2022-10-16T01:36:45;16.90;99.90
43673;DHT22;41723;49.326;8.430;2022-10-16T01:39:12;16.90;99.90
43673;DHT22;41723;49.326;8.430;2022-10-16T01:41:46;16.90;99.90
43673;DHT22;41723;49.326;8.430;2022-10-16T01:44:16;16.90;99.90
43673;DHT22;41723;49.326;8.430;2022-10-16T01:46:43;16.90;99.90
43673;DHT22;41723;49.326;8.430;2022-10-16T01:49:11;16.90;99.90
43673;DHT22;41723;49.326;8.430;2022-10-16T01:51:37;16.90;99.90
43673;DHT22;41723;49.326;8.430;2022-10-16T01:54:03;16.90;99.90
43673;DHT22;41723;49.326;8.430;2022-10-16T01:56:30;16.90;99.90
43673;DHT22;41723;49.326;8.430;2022-10-16T01:59:18;16.90;99.90
43673;DHT22;41723;49.326;8.430;2022-10-16T02:01:45;16.90;99.90
43673;DHT22;41723;49.326;8.430;2022-10-16T02:04:13;16.90;99.90
43673;DHT22;41723;49.326;8.430;2022-10-16T02:06:41;16.90;99.90
43673;DHT22;41723;49.326;8.430;2022-10-16T02:09:06;16.80;99.90
43673;DHT22;41723;49.326;8.430;2022-10-16T02:11:32;16.80;99.90
43673;DHT22;41723;49.326;8.430;2022-10-16T02:13:59;16.90;99.90
43673;DHT22;41723;49.326;8.430;2022-10-16T02:19:18;16.90;99.90
43673;DHT22;41723;49.326;8.430;2022-10-16T02:29:12;16.90;99.90
43673;DHT22;41723;49.326;8.430;2022-10-16T02:31:41;16.90;99.90
43673;DHT22;41723;49.326;8.430;2022-10-16T02:34:09;16.90;99.90
43673;DHT22;41723;49.326;8.430;2022-10-16T02:36:37;16.80;99.90
43673;DHT22;41723;49.326;8.430;2022-10-16T02:39:04;16.80;99.90
43673;DHT22;41723;49.326;8.430;2022-10-16T02:41:30;16.70;99.90
43673;DHT22;41723;49.326;8.430;2022-10-16T02:43:55;16.70;99.90
43673;DHT22;41723;49.326;8.430;2022-10-16T02:46:21;16.70;99.90
43673;DHT22;41723;49.326;8.430;2022-10-16T02:48:46;16.70;99.90
43673;DHT22;41723;49.326;8.430;2022-10-16T02:51:12;16.70;99.90
43673;DHT22;41723;49.326;8.430;2022-10-16T02:53:38;16.70;99.90
43673;DHT22;41723;49.326;8.430;2022-10-16T02:56:04;16.80;99.90
43673;DHT22;41723;49.326;8.430;2022-10-16T02:58:29;16.80;99.90
43673;DHT22;41723;49.326;8.430;2022-10-16T03:00:55;16.80;99.90
43673;DHT22;41723;49.326;8.430;2022-10-16T03:03:21;16.80;99.90
43673;DHT22;41723;49.326;8.430;2022-10-16T03:05:46;16.80;99.90
43673;DHT22;41723;49.326;8.430;2022-10-16T03:08:12;16.80;99.90
43673;DHT22;41723;49.326;8.430;2022-10-16T03:10:38;16.80;99.90
43673;DHT22;41723;49.326;8.430;2022-10-16T03:13:03;16.80;99.90
43673;DHT22;41723;49.326;8.430;2022-10-16T03:15:29;16.80;99.90
43673;DHT22;41723;49.326;8.430;2022-10-16T03:17:57;16.80;99.90
43673;DHT22;41723;49.326;8.430;2022-10-16T03:20:22;16.80;99.90
43673;DHT22;41723;49.326;8.430;2022-10-16T03:22:48;16.70;99.90
43673;DHT22;41723;49.326;8.430;2022-10-16T03:25:14;16.70;99.90
43673;DHT22;41723;49.326;8.430;2022-10-16T03:27:40;16.70;99.90
43673;DHT22;41723;49.326;8.430;2022-10-16T03:30:05;16.80;99.90
43673;DHT22;41723;49.326;8.430;2022-10-16T03:32:31;16.70;99.90
43673;DHT22;41723;49.326;8.430;2022-10-16T03:34:57;16.80;99.90
43673;DHT22;41723;49.326;8.430;2022-10-16T03:37:22;16.80;99.90
43673;DHT22;41723;49.326;8.430;2022-10-16T03:39:48;16.70;99.90
43673;DHT22;41723;49.326;8.430;2022-10-16T03:42:14;16.70;99.90
43673;DHT22;41723;49.326;8.430;2022-10-16T03:44:39;16.70;99.90
43673;DHT22;41723;49.326;8.430;2022-10-16T03:47:05;16.70;99.90
43673;DHT22;41723;49.326;8.430;2022-10-16T03:49:30;16.70;99.90
43673;DHT22;41723;49.326;8.430;2022-10-16T03:51:56;16.70;99.90
43673;DHT22;41723;49.326;8.430;2022-10-16T03:54:21;16.60;99.90
43673;DHT22;41723;49.326;8.430;2022-10-16T03:56:47;16.60;99.90
43673;DHT22;41723;49.326;8.430;2022-10-16T03:59:13;16.70;99.90
43673;DHT22;41723;49.326;8.430;2022-10-16T04:01:39;16.60;99.90
43673;DHT22;41723;49.326;8.430;2022-10-16T04:04:04;16.60;99.90
43673;DHT22;41723;49.326;8.430;2022-10-16T04:06:30;16.60;99.90
43673;DHT22;41723;49.326;8.430;2022-10-16T04:08:56;16.60;99.90
43673;DHT22;41723;49.326;8.430;2022-10-16T04:11:21;16.60;99.90
43673;DHT22;41723;49.326;8.430;2022-10-16T04:13:47;16.60;99.90
43673;DHT22;41723;49.326;8.430;2022-10-16T04:16:13;16.60;99.90
43673;DHT22;41723;49.326;8.430;2022-10-16T04:18:42;16.60;99.90
43673;DHT22;41723;49.326;8.430;2022-10-16T04:21:10;16.60;99.90
43673;DHT22;41723;49.326;8.430;2022-10-16T04:23:36;16.60;99.90
43673;DHT22;41723;49.326;8.430;2022-10-16T04:26:01;16.70;99.90
43673;DHT22;41723;49.326;8.430;2022-10-16T04:28:27;16.70;99.90
43673;DHT22;41723;49.326;8.430;2022-10-16T04:30:53;16.70;99.90
43673;DHT22;41723;49.326;8.430;2022-10-16T04:33:19;16.70;99.90
43673;DHT22;41723;49.326;8.430;2022-10-16T04:35:44;16.70;99.90
43673;DHT22;41723;49.326;8.430;2022-10-16T04:38:10;16.70;99.90
43673;DHT22;41723;49.326;8.430;2022-10-16T04:40:36;16.70;99.90
43673;DHT22;41723;49.326;8.430;2022-10-16T04:43:02;16.70;99.90
43673;DHT22;41723;49.326;8.430;2022-10-16T04:45:28;16.70;99.90
43673;DHT22;41723;49.326;8.430;2022-10-16T04:47:56;16.70;99.90
43673;DHT22;41723;49.326;8.430;2022-10-16T04:50:22;16.70;99.90
43673;DHT22;41723;49.326;8.430;2022-10-16T04:53:03;16.70;99.90
43673;DHT22;41723;49.326;8.430;2022-10-16T04:55:29;16.70;99.90
43673;DHT22;41723;49.326;8.430;2022-10-16T04:57:55;16.70;99.90
43673;DHT22;41723;49.326;8.430;2022-10-16T05:00:20;16.70;99.90
43673;DHT22;41723;49.326;8.430;2022-10-16T05:02:49;16.70;99.90
43673;DHT22;41723;49.326;8.430;2022-10-16T05:05:14;16.80;99.90
43673;DHT22;41723;49.326;8.430;2022-10-16T05:07:40;16.80;99.90
43673;DHT22;41723;49.326;8.430;2022-10-16T05:10:06;16.70;99.90
43673;DHT22;41723;49.326;8.430;2022-10-16T05:12:32;16.70;99.90
43673;DHT22;41723;49.326;8.430;2022-10-16T05:14:57;16.70;99.90
43673;DHT22;41723;49.326;8.430;2022-10-16T05:17:24;16.70;99.90
43673;DHT22;41723;49.326;8.430;2022-10-16T05:19:50;16.70;99.90
43673;DHT22;41723;49.326;8.430;2022-10-16T05:22:16;16.70;99.90
43673;DHT22;41723;49.326;8.430;2022-10-16T05:24:41;16.70;99.90
43673;DHT22;41723;49.326;8.430;2022-10-16T05:27:07;16.70;99.90
43673;DHT22;41723;49.326;8.430;2022-10-16T05:29:32;16.70;99.90
43673;DHT22;41723;49.326;8.430;2022-10-16T05:31:58;16.70;99.90
43673;DHT22;41723;49.326;8.430;2022-10-16T05:34:24;16.70;99.90
43673;DHT22;41723;49.326;8.430;2022-10-16T05:36:49;16.70;99.90
43673;DHT22;41723;49.326;8.430;2022-10-16T05:39:15;16.70;99.90
43673;DHT22;41723;49.326;8.430;2022-10-16T05:41:41;16.70;99.90
43673;DHT22;41723;49.326;8.430;2022-10-16T05:44:07;16.70;99.90
43673;DHT22;41723;49.326;8.430;2022-10-16T05:46:32;16.70;99.90
43673;DHT22;41723;49.326;8.430;2022-10-16T05:48:58;16.70;99.90
43673;DHT22;41723;49.326;8.430;2022-10-16T05:51:24;16.70;99.90
43673;DHT22;41723;49.326;8.430;2022-10-16T05:53:49;16.70;99.90
43673;DHT22;41723;49.326;8.430;2022-10-16T05:56:15;16.70;99.90
43673;DHT22;41723;49.326;8.430;2022-10-16T05:58:41;16.70;99.90
43673;DHT22;41723;49.326;8.430;2022-10-16T06:01:09;16.70;99.90
43673;DHT22;41723;49.326;8.430;2022-10-16T06:03:35;16.60;99.90
43673;DHT22;41723;49.326;8.430;2022-10-16T06:06:07;16.70;99.90
43673;DHT22;41723;49.326;8.430;2022-10-16T06:08:33;16.70;99.90
43673;DHT22;41723;49.326;8.430;2022-10-16T06:11:02;16.70;99.90
43673;DHT22;41723;49.326;8.430;2022-10-16T06:13:28;16.60;99.90
43673;DHT22;41723;49.326;8.430;2022-10-16T06:15:56;16.70;99.90
43673;DHT22;41723;49.326;8.430;2022-10-16T06:18:22;16.70;99.90
43673;DHT22;41723;49.326;8.430;2022-10-16T06:20:47;16.70;99.90
43673;DHT22;41723;49.326;8.430;2022-10-16T06:23:13;16.70;99.90
43673;DHT22;41723;49.326;8.430;2022-10-16T06:25:38;16.70;99.90
43673;DHT22;41723;49.326;8.430;2022-10-16T06:28:04;16.70;99.90
43673;DHT22;41723;49.326;8.430;2022-10-16T06:30:32;16.70;99.90
43673;DHT22;41723;49.326;8.430;2022-10-16T06:32:57;16.70;99.90
43673;DHT22;41723;49.326;8.430;2022-10-16T06:35:23;16.60;99.90
43673;DHT22;41723;49.326;8.430;2022-10-16T06:37:49;16.60;99.90
43673;DHT22;41723;49.326;8.430;2022-10-16T06:40:14;16.70;99.90
43673;DHT22;41723;49.326;8.430;2022-10-16T06:42:40;16.60;99.90
43673;DHT22;41723;49.326;8.430;2022-10-16T06:45:06;16.60;99.90
43673;DHT22;41723;49.326;8.430;2022-10-16T06:47:33;16.60;99.90
43673;DHT22;41723;49.326;8.430;2022-10-16T06:49:58;16.70;99.90
43673;DHT22;41723;49.326;8.430;2022-10-16T06:52:24;16.70;99.90
43673;DHT22;41723;49.326;8.430;2022-10-16T06:54:50;16.70;99.90
43673;DHT22;41723;49.326;8.430;2022-10-16T06:57:15;16.70;99.90
43673;DHT22;41723;49.326;8.430;2022-10-16T06:59:41;16.70;99.90
43673;DHT22;41723;49.326;8.430;2022-10-16T07:02:07;16.80;99.90
43673;DHT22;41723;49.326;8.430;2022-10-16T07:04:33;16.80;99.90
43673;DHT22;41723;49.326;8.430;2022-10-16T07:07:00;16.80;99.90
43673;DHT22;41723;49.326;8.430;2022-10-16T07:09:26;16.80;99.90
43673;DHT22;41723;49.326;8.430;2022-10-16T07:11:52;16.80;99.90
43673;DHT22;41723;49.326;8.430;2022-10-16T07:14:18;16.90;99.90
43673;DHT22;41723;49.326;8.430;2022-10-16T07:16:44;16.90;99.90
43673;DHT22;41723;49.326;8.430;2022-10-16T07:19:10;16.90;99.90
43673;DHT22;41723;49.326;8.430;2022-10-16T07:21:38;16.90;99.90
43673;DHT22;41723;49.326;8.430;2022-10-16T07:24:05;16.90;99.90
43673;DHT22;41723;49.326;8.430;2022-10-16T07:26:33;17.00;99.90
43673;DHT22;41723;49.326;8.430;2022-10-16T07:28:58;17.00;99.90
43673;DHT22;41723;49.326;8.430;2022-10-16T07:31:24;17.00;99.90
43673;DHT22;41723;49.326;8.430;2022-10-16T07:33:50;17.10;99.90
43673;DHT22;41723;49.326;8.430;2022-10-16T07:36:16;17.10;99.90
43673;DHT22;41723;49.326;8.430;2022-10-16T07:38:43;17.10;99.90
43673;DHT22;41723;49.326;8.430;2022-10-16T07:41:10;17.10;99.90
43673;DHT22;41723;49.326;8.430;2022-10-16T07:43:36;17.10;99.90
43673;DHT22;41723;49.326;8.430;2022-10-16T07:46:01;17.10;99.90
43673;DHT22;41723;49.326;8.430;2022-10-16T07:48:28;17.10;99.90
43673;DHT22;41723;49.326;8.430;2022-10-16T07:50:56;17.20;99.90
43673;DHT22;41723;49.326;8.430;2022-10-16T07:53:22;17.20;99.90
43673;DHT22;41723;49.326;8.430;2022-10-16T07:55:48;17.20;99.90
43673;DHT22;41723;49.326;8.430;2022-10-16T07:58:13;17.20;99.90
43673;DHT22;41723;49.326;8.430;2022-10-16T08:00:39;17.30;99.90
43673;DHT22;41723;49.326;8.430;2022-10-16T08:03:04;17.30;99.90
43673;DHT22;41723;49.326;8.430;2022-10-16T08:05:31;17.30;99.90
43673;DHT22;41723;49.326;8.430;2022-10-16T08:07:57;17.30;99.90
43673;DHT22;41723;49.326;8.430;2022-10-16T08:10:23;17.40;99.90
43673;DHT22;41723;49.326;8.430;2022-10-16T08:12:51;17.30;99.90
43673;DHT22;41723;49.326;8.430;2022-10-16T08:15:17;17.30;99.90
43673;DHT22;41723;49.326;8.430;2022-10-16T08:17:42;17.30;99.90
43673;DHT22;41723;49.326;8.430;2022-10-16T08:20:08;17.30;99.90
43673;DHT22;41723;49.326;8.430;2022-10-16T08:22:34;17.30;99.90
43673;DHT22;41723;49.326;8.430;2022-10-16T08:24:59;17.30;99.90
43673;DHT22;41723;49.326;8.430;2022-10-16T08:27:30;17.30;99.90
43673;DHT22;41723;49.326;8.430;2022-10-16T08:29:56;17.30;99.90
43673;DHT22;41723;49.326;8.430;2022-10-16T08:32:21;17.30;99.90
43673;DHT22;41723;49.326;8.430;2022-10-16T08:34:47;17.40;99.90
43673;DHT22;41723;49.326;8.430;2022-10-16T08:37:12;17.40;99.90
43673;DHT22;41723;49.326;8.430;2022-10-16T08:39:39;17.40;99.90
43673;DHT22;41723;49.326;8.430;2022-10-16T08:42:14;17.40;99.90
43673;DHT22;41723;49.326;8.430;2022-10-16T08:47:43;17.40;99.90
43673;DHT22;41723;49.326;8.430;2022-10-16T08:50:17;17.50;99.90
43673;DHT22;41723;49.326;8.430;2022-10-16T08:52:47;17.50;99.90
43673;DHT22;41723;49.326;8.430;2022-10-16T08:57:58;17.50;99.90
43673;DHT22;41723;49.326;8.430;2022-10-16T09:00:24;17.60;99.90
43673;DHT22;41723;49.326;8.430;2022-10-16T09:02:53;17.60;99.90
43673;DHT22;41723;49.326;8.430;2022-10-16T09:13:10;17.70;99.90
43673;DHT22;41723;49.326;8.430;2022-10-16T09:21:30;17.90;99.90
43673;DHT22;41723;49.326;8.430;2022-10-16T09:23:57;17.90;99.90
43673;DHT22;41723;49.326;8.430;2022-10-16T09:26:23;18.00;99.90
43673;DHT22;41723;49.326;8.430;2022-10-16T09:28:49;18.00;99.90
43673;DHT22;41723;49.326;8.430;2022-10-16T09:31:18;18.00;99.90
43673;DHT22;41723;49.326;8.430;2022-10-16T09:33:45;18.10;99.90
43673;DHT22;41723;49.326;8.430;2022-10-16T09:36:13;18.10;99.90
43673;DHT22;41723;49.326;8.430;2022-10-16T09:38:39;18.10;99.90
43673;DHT22;41723;49.326;8.430;2022-10-16T09:43:40;18.20;99.90
43673;DHT22;41723;49.326;8.430;2022-10-16T09:46:07;18.30;99.90
43673;DHT22;41723;49.326;8.430;2022-10-16T09:48:38;18.40;99.90
43673;DHT22;41723;49.326;8.430;2022-10-16T09:51:13;18.30;99.90
43673;DHT22;41723;49.326;8.430;2022-10-16T09:53:42;18.50;99.90
43673;DHT22;41723;49.326;8.430;2022-10-16T09:56:09;18.60;99.90
43673;DHT22;41723;49.326;8.430;2022-10-16T09:58:35;18.60;99.90
43673;DHT22;41723;49.326;8.430;2022-10-16T10:01:02;18.60;99.90
43673;DHT22;41723;49.326;8.430;2022-10-16T10:05:56;18.60;99.90
43673;DHT22;41723;49.326;8.430;2022-10-16T10:08:22;18.70;99.90
43673;DHT22;41723;49.326;8.430;2022-10-16T10:10:48;18.80;99.90
43673;DHT22;41723;49.326;8.430;2022-10-16T10:13:20;18.80;99.90
43673;DHT22;41723;49.326;8.430;2022-10-16T10:15:47;18.80;99.90
43673;DHT22;41723;49.326;8.430;2022-10-16T10:18:17;18.90;99.90
43673;DHT22;41723;49.326;8.430;2022-10-16T10:20:43;19.00;99.90
43673;DHT22;41723;49.326;8.430;2022-10-16T10:23:22;19.00;99.90
43673;DHT22;41723;49.326;8.430;2022-10-16T10:28:44;19.10;99.90
43673;DHT22;41723;49.326;8.430;2022-10-16T10:31:26;19.10;99.90
43673;DHT22;41723;49.326;8.430;2022-10-16T10:36:38;19.30;99.90
43673;DHT22;41723;49.326;8.430;2022-10-16T10:39:15;19.40;99.90
43673;DHT22;41723;49.326;8.430;2022-10-16T10:41:53;19.50;99.90
43673;DHT22;41723;49.326;8.430;2022-10-16T10:52:07;19.80;99.90
43673;DHT22;41723;49.326;8.430;2022-10-16T11:07:45;19.60;99.90
43673;DHT22;41723;49.326;8.430;2022-10-16T11:10:14;19.60;99.90
43673;DHT22;41723;49.326;8.430;2022-10-16T11:12:46;19.60;99.90
43673;DHT22;41723;49.326;8.430;2022-10-16T11:18:19;19.70;99.90
43673;DHT22;41723;49.326;8.430;2022-10-16T11:23:48;19.80;99.90
43673;DHT22;41723;49.326;8.430;2022-10-16T11:26:17;19.90;99.90
43673;DHT22;41723;49.326;8.430;2022-10-16T11:39:14;20.10;99.90
43673;DHT22;41723;49.326;8.430;2022-10-16T11:41:50;20.10;99.90
43673;DHT22;41723;49.326;8.430;2022-10-16T11:49:32;20.10;99.90
43673;DHT22;41723;49.326;8.430;2022-10-16T11:52:06;20.20;99.90
43673;DHT22;41723;49.326;8.430;2022-10-16T11:54:47;20.20;99.90
43673;DHT22;41723;49.326;8.430;2022-10-16T11:57:19;20.30;99.90
43673;DHT22;41723;49.326;8.430;2022-10-16T12:05:01;20.30;99.90
43673;DHT22;41723;49.326;8.430;2022-10-16T12:07:32;20.20;99.90
43673;DHT22;41723;49.326;8.430;2022-10-16T12:10:09;20.20;99.90
43673;DHT22;41723;49.326;8.430;2022-10-16T12:15:03;20.10;99.90
43673;DHT22;41723;49.326;8.430;2022-10-16T12:17:42;20.20;99.90
43673;DHT22;41723;49.326;8.430;2022-10-16T12:22:37;20.20;99.90
43673;DHT22;41723;49.326;8.430;2022-10-16T12:25:18;20.20;99.90
43673;DHT22;41723;49.326;8.430;2022-10-16T12:27:45;20.20;99.90
43673;DHT22;41723;49.326;8.430;2022-10-16T12:30:14;20.20;99.90
43673;DHT22;41723;49.326;8.430;2022-10-16T12:32:45;20.20;99.90
43673;DHT22;41723;49.326;8.430;2022-10-16T12:35:22;20.20;99.90
43673;DHT22;41723;49.326;8.430;2022-10-16T12:37:49;20.20;99.90
43673;DHT22;41723;49.326;8.430;2022-10-16T12:40:22;20.20;99.90
43673;DHT22;41723;49.326;8.430;2022-10-16T12:42:49;20.20;99.90
43673;DHT22;41723;49.326;8.430;2022-10-16T12:47:50;20.10;99.90
43673;DHT22;41723;49.326;8.430;2022-10-16T12:50:50;20.20;99.90
43673;DHT22;41723;49.326;8.430;2022-10-16T12:53:20;20.20;99.90
43673;DHT22;41723;49.326;8.430;2022-10-16T12:55:49;20.30;99.90
43673;DHT22;41723;49.326;8.430;2022-10-16T13:08:35;20.20;99.90
43673;DHT22;41723;49.326;8.430;2022-10-16T13:28:44;19.90;99.90
43673;DHT22;41723;49.326;8.430;2022-10-16T13:31:21;19.90;99.90
43673;DHT22;41723;49.326;8.430;2022-10-16T13:33:49;19.90;99.90
43673;DHT22;41723;49.326;8.430;2022-10-16T13:36:18;19.90;99.90
43673;DHT22;41723;49.326;8.430;2022-10-16T13:38:44;19.90;99.90
43673;DHT22;41723;49.326;8.430;2022-10-16T13:41:14;19.90;99.90
43673;DHT22;41723;49.326;8.430;2022-10-16T13:43:43;19.90;99.90
43673;DHT22;41723;49.326;8.430;2022-10-16T13:46:18;19.90;99.90
43673;DHT22;41723;49.326;8.430;2022-10-16T13:48:44;19.90;99.90
43673;DHT22;41723;49.326;8.430;2022-10-16T13:51:14;19.90;99.90
43673;DHT22;41723;49.326;8.430;2022-10-16T13:53:40;19.90;99.90
43673;DHT22;41723;49.326;8.430;2022-10-16T13:56:13;19.90;99.90
43673;DHT22;41723;49.326;8.430;2022-10-16T13:58:39;19.90;99.90
43673;DHT22;41723;49.326;8.430;2022-10-16T14:01:06;19.80;99.90
43673;DHT22;41723;49.326;8.430;2022-10-16T14:03:40;19.80;99.90
43673;DHT22;41723;49.326;8.430;2022-10-16T14:06:06;19.80;99.90
43673;DHT22;41723;49.326;8.430;2022-10-16T14:08:40;19.80;99.90
43673;DHT22;41723;49.326;8.430;2022-10-16T14:11:07;19.80;99.90
43673;DHT22;41723;49.326;8.430;2022-10-16T14:13:37;19.80;99.90
43673;DHT22;41723;49.326;8.430;2022-10-16T14:16:15;19.70;99.90
43673;DHT22;41723;49.326;8.430;2022-10-16T14:18:41;19.70;99.90
43673;DHT22;41723;49.326;8.430;2022-10-16T14:21:13;19.70;99.90
43673;DHT22;41723;49.326;8.430;2022-10-16T14:23:40;19.70;99.90
43673;DHT22;41723;49.326;8.430;2022-10-16T14:26:11;19.70;99.90
43673;DHT22;41723;49.326;8.430;2022-10-16T14:28:40;19.70;99.90
43673;DHT22;41723;49.326;8.430;2022-10-16T14:31:29;19.60;99.90
43673;DHT22;41723;49.326;8.430;2022-10-16T14:33:52;19.60;99.90
43673;DHT22;41723;49.326;8.430;2022-10-16T14:36:18;19.60;99.90
43673;DHT22;41723;49.326;8.430;2022-10-16T14:38:49;19.60;99.90
43673;DHT22;41723;49.326;8.430;2022-10-16T14:41:19;19.60;99.90
43673;DHT22;41723;49.326;8.430;2022-10-16T14:43:49;19.60;99.90
43673;DHT22;41723;49.326;8.430;2022-10-16T14:46:16;19.70;99.90
43673;DHT22;41723;49.326;8.430;2022-10-16T14:48:43;19.70;99.90
43673;DHT22;41723;49.326;8.430;2022-10-16T14:51:16;19.70;99.90
43673;DHT22;41723;49.326;8.430;2022-10-16T14:53:42;19.70;99.90
43673;DHT22;41723;49.326;8.430;2022-10-16T14:56:08;19.80;99.90
43673;DHT22;41723;49.326;8.430;2022-10-16T14:58:39;19.80;99.90
43673;DHT22;41723;49.326;8.430;2022-10-16T15:01:05;19.80;99.90
43673;DHT22;41723;49.326;8.430;2022-10-16T15:03:33;19.90;99.90
43673;DHT22;41723;49.326;8.430;2022-10-16T15:05:59;19.90;99.90
43673;DHT22;41723;49.326;8.430;2022-10-16T15:08:25;19.90;99.90
43673;DHT22;41723;49.326;8.430;2022-10-16T15:10:50;19.90;99.90
43673;DHT22;41723;49.326;8.430;2022-10-16T15:13:16;19.90;99.90
43673;DHT22;41723;49.326;8.430;2022-10-16T15:15:45;19.90;99.90
43673;DHT22;41723;49.326;8.430;2022-10-16T15:18:11;19.80;99.90
43673;DHT22;41723;49.326;8.430;2022-10-16T15:20:37;19.90;99.90
43673;DHT22;41723;49.326;8.430;2022-10-16T15:23:05;19.90;99.90
43673;DHT22;41723;49.326;8.430;2022-10-16T15:25:34;19.80;99.90
43673;DHT22;41723;49.326;8.430;2022-10-16T15:28:00;19.80;99.90
43673;DHT22;41723;49.326;8.430;2022-10-16T15:30:26;19.80;99.90
43673;DHT22;41723;49.326;8.430;2022-10-16T15:32:52;19.80;99.90
43673;DHT22;41723;49.326;8.430;2022-10-16T15:35:17;19.80;99.90
43673;DHT22;41723;49.326;8.430;2022-10-16T15:37:43;19.70;99.90
43673;DHT22;41723;49.326;8.430;2022-10-16T15:40:09;19.70;99.90
43673;DHT22;41723;49.326;8.430;2022-10-16T15:42:35;19.70;99.90
43673;DHT22;41723;49.326;8.430;2022-10-16T15:45:01;19.70;99.90
43673;DHT22;41723;49.326;8.430;2022-10-16T15:47:26;19.70;99.90
43673;DHT22;41723;49.326;8.430;2022-10-16T15:49:52;19.70;99.90
43673;DHT22;41723;49.326;8.430;2022-10-16T15:52:17;19.70;99.90
43673;DHT22;41723;49.326;8.430;2022-10-16T15:54:43;19.70;99.90
43673;DHT22;41723;49.326;8.430;2022-10-16T15:57:09;19.60;99.90
43673;DHT22;41723;49.326;8.430;2022-10-16T15:59:34;19.60;99.90
43673;DHT22;41723;49.326;8.430;2022-10-16T16:02:00;19.60;99.90
43673;DHT22;41723;49.326;8.430;2022-10-16T16:04:26;19.60;99.90
43673;DHT22;41723;49.326;8.430;2022-10-16T16:06:51;19.60;99.90
43673;DHT22;41723;49.326;8.430;2022-10-16T16:09:17;19.60;99.90
43673;DHT22;41723;49.326;8.430;2022-10-16T16:11:42;19.50;99.90
43673;DHT22;41723;49.326;8.430;2022-10-16T16:14:11;19.50;99.90
43673;DHT22;41723;49.326;8.430;2022-10-16T16:16:38;19.50;99.90
43673;DHT22;41723;49.326;8.430;2022-10-16T16:19:04;19.50;99.90
43673;DHT22;41723;49.326;8.430;2022-10-16T16:21:31;19.40;99.90
43673;DHT22;41723;49.326;8.430;2022-10-16T16:23:57;19.40;99.90
43673;DHT22;41723;49.326;8.430;2022-10-16T16:26:24;19.40;99.90
43673;DHT22;41723;49.326;8.430;2022-10-16T16:28:55;19.30;99.90
43673;DHT22;41723;49.326;8.430;2022-10-16T16:31:26;19.30;99.90
43673;DHT22;41723;49.326;8.430;2022-10-16T16:33:51;19.20;99.90
43673;DHT22;41723;49.326;8.430;2022-10-16T16:36:17;19.20;99.90
43673;DHT22;41723;49.326;8.430;2022-10-16T16:38:46;19.20;99.90
43673;DHT22;41723;49.326;8.430;2022-10-16T16:41:16;19.20;99.90
43673;DHT22;41723;49.326;8.430;2022-10-16T16:43:42;19.10;99.90
43673;DHT22;41723;49.326;8.430;2022-10-16T16:46:08;19.10;99.90
43673;DHT22;41723;49.326;8.430;2022-10-16T16:48:33;19.00;99.90
43673;DHT22;41723;49.326;8.430;2022-10-16T16:51:06;19.00;99.90
43673;DHT22;41723;49.326;8.430;2022-10-16T16:53:35;18.90;99.90
43673;DHT22;41723;49.326;8.430;2022-10-16T16:56:02;18.90;99.90
43673;DHT22;41723;49.326;8.430;2022-10-16T16:58:28;18.80;99.90
43673;DHT22;41723;49.326;8.430;2022-10-16T17:00:53;18.80;99.90
43673;DHT22;41723;49.326;8.430;2022-10-16T17:03:19;18.80;99.90
43673;DHT22;41723;49.326;8.430;2022-10-16T17:05:54;18.80;99.90
43673;DHT22;41723;49.326;8.430;2022-10-16T17:08:20;18.70;99.90
43673;DHT22;41723;49.326;8.430;2022-10-16T17:10:45;18.60;99.90
43673;DHT22;41723;49.326;8.430;2022-10-16T17:13:15;18.60;99.90
43673;DHT22;41723;49.326;8.430;2022-10-16T17:15:45;18.60;99.90
43673;DHT22;41723;49.326;8.430;2022-10-16T17:18:11;18.50;99.90
43673;DHT22;41723;49.326;8.430;2022-10-16T17:20:36;18.50;99.90
43673;DHT22;41723;49.326;8.430;2022-10-16T17:23:02;18.50;99.90
43673;DHT22;41723;49.326;8.430;2022-10-16T17:25:27;18.40;99.90
43673;DHT22;41723;49.326;8.430;2022-10-16T17:27:53;18.30;99.90
43673;DHT22;41723;49.326;8.430;2022-10-16T17:30:19;18.30;99.90
43673;DHT22;41723;49.326;8.430;2022-10-16T17:32:44;18.30;99.90
43673;DHT22;41723;49.326;8.430;2022-10-16T17:35:10;18.30;99.90
43673;DHT22;41723;49.326;8.430;2022-10-16T17:37:36;18.20;99.90
43673;DHT22;41723;49.326;8.430;2022-10-16T17:40:01;18.20;99.90
43673;DHT22;41723;49.326;8.430;2022-10-16T17:42:27;18.20;99.90
43673;DHT22;41723;49.326;8.430;2022-10-16T17:44:53;18.20;99.90
43673;DHT22;41723;49.326;8.430;2022-10-16T17:47:18;18.20;99.90